TRA5575 EDDN-EHRD
Flight info
| Callsign | TRA5575 |
|---|---|
| Flight time | 0h 58m |
| Altitude | 40000 |
| Route | SULUS1G/28 SULUS L604 RELBI L602 RKN |
| Aircraft | B737/M-SDE2E3FGHIRWXY/LB1 |
Departure
| Time | 2026-04-27 12:29 |
|---|---|
| Airport | Nuremberg Airport (EDDN) |
Arrival
| Time | 2026-04-27 13:27 |
|---|---|
| Airport | Rotterdam The Hague Airport (EHRD) |
| Time | Latitude | Longitude | Altitude | Speed | Heading |
|---|---|---|---|---|---|
| 2026-04-27 12:05 | 49.49578 | 11.08258 | 1029 ft | 0 kts | 188° |
| 2026-04-27 12:24 | 49.49578 | 11.08257 | 1029 ft | 1 kts | 192° |
| 2026-04-27 12:24 | 49.49552 | 11.08257 | 1026 ft | 6 kts | 149° |
| 2026-04-27 12:25 | 49.49543 | 11.08319 | 1029 ft | 6 kts | 67° |
| 2026-04-27 12:25 | 49.49582 | 11.08350 | 1031 ft | 6 kts | 19° |
| 2026-04-27 12:25 | 49.49612 | 11.08403 | 1033 ft | 7 kts | 72° |
| 2026-04-27 12:25 | 49.49609 | 11.08492 | 1034 ft | 10 kts | 99° |
| 2026-04-27 12:26 | 49.49596 | 11.08608 | 1035 ft | 13 kts | 99° |
| 2026-04-27 12:26 | 49.49580 | 11.08755 | 1036 ft | 15 kts | 99° |
| 2026-04-27 12:26 | 49.49564 | 11.08932 | 1037 ft | 18 kts | 96° |
| 2026-04-27 12:26 | 49.49546 | 11.09129 | 1040 ft | 19 kts | 99° |
| 2026-04-27 12:27 | 49.49530 | 11.09313 | 1044 ft | 14 kts | 87° |
| 2026-04-27 12:27 | 49.49570 | 11.09443 | 1047 ft | 13 kts | 54° |
| 2026-04-27 12:27 | 49.49600 | 11.09506 | 1049 ft | 0 kts | 52° |
| 2026-04-27 12:28 | 49.49623 | 11.09544 | 1050 ft | 16 kts | 38° |
| 2026-04-27 12:28 | 49.49709 | 11.09449 | 1050 ft | 34 kts | 281° |
| 2026-04-27 12:28 | 49.49785 | 11.08636 | 1038 ft | 115 kts | 278° |
| 2026-04-27 12:29 | 49.49922 | 11.07158 | 1233 ft | 151 kts | 278° |
| 2026-04-27 12:29 | 49.50080 | 11.05583 | 2041 ft | 155 kts | 280° |
| 2026-04-27 12:29 | 49.50248 | 11.03916 | 2763 ft | 159 kts | 279° |
| 2026-04-27 12:29 | 49.50425 | 11.02102 | 3221 ft | 187 kts | 279° |
| 2026-04-27 12:30 | 49.50632 | 10.99979 | 3514 ft | 219 kts | 279° |
| 2026-04-27 12:30 | 49.50868 | 10.97527 | 3956 ft | 240 kts | 279° |
| 2026-04-27 12:30 | 49.51273 | 10.94986 | 4606 ft | 256 kts | 298° |
| 2026-04-27 12:30 | 49.52560 | 10.93076 | 5398 ft | 265 kts | 336° |
| 2026-04-27 12:31 | 49.54343 | 10.92415 | 6439 ft | 267 kts | 357° |
| 2026-04-27 12:31 | 49.56211 | 10.92444 | 7429 ft | 270 kts | 2° |
| 2026-04-27 12:31 | 49.58100 | 10.92549 | 8394 ft | 273 kts | 1° |
| 2026-04-27 12:31 | 49.60020 | 10.92631 | 9337 ft | 278 kts | 1° |
| 2026-04-27 12:32 | 49.61972 | 10.92699 | 10284 ft | 282 kts | 1° |
| 2026-04-27 12:32 | 49.63977 | 10.92765 | 10861 ft | 299 kts | 0° |
| 2026-04-27 12:32 | 49.66156 | 10.92826 | 11090 ft | 325 kts | 0° |
| 2026-04-27 12:32 | 49.68439 | 10.92887 | 11993 ft | 325 kts | 360° |
| 2026-04-27 12:33 | 49.70645 | 10.92714 | 13380 ft | 311 kts | 346° |
| 2026-04-27 12:33 | 49.72666 | 10.91777 | 14653 ft | 300 kts | 339° |
| 2026-04-27 12:33 | 49.74653 | 10.90700 | 15448 ft | 306 kts | 338° |
| 2026-04-27 12:33 | 49.76678 | 10.89573 | 16279 ft | 312 kts | 338° |
| 2026-04-27 12:34 | 49.78729 | 10.88437 | 17137 ft | 315 kts | 338° |
| 2026-04-27 12:34 | 49.80806 | 10.87299 | 18001 ft | 319 kts | 338° |
| 2026-04-27 12:34 | 49.82917 | 10.86152 | 18791 ft | 324 kts | 338° |
| 2026-04-27 12:34 | 49.85052 | 10.84998 | 19545 ft | 326 kts | 338° |
| 2026-04-27 12:35 | 49.87201 | 10.83840 | 20346 ft | 328 kts | 338° |
| 2026-04-27 12:35 | 49.89367 | 10.82676 | 21143 ft | 330 kts | 337° |
| 2026-04-27 12:35 | 49.91544 | 10.81506 | 21915 ft | 333 kts | 337° |
| 2026-04-27 12:35 | 49.93750 | 10.80319 | 22690 ft | 336 kts | 337° |
| 2026-04-27 12:36 | 49.95939 | 10.79141 | 23448 ft | 339 kts | 337° |
| 2026-04-27 12:36 | 49.98208 | 10.77918 | 24156 ft | 342 kts | 337° |
| 2026-04-27 12:36 | 50.00437 | 10.76717 | 24768 ft | 345 kts | 337° |
| 2026-04-27 12:36 | 50.02713 | 10.75488 | 25380 ft | 348 kts | 337° |
| 2026-04-27 12:37 | 50.05014 | 10.74245 | 25999 ft | 351 kts | 337° |
| 2026-04-27 12:37 | 50.07264 | 10.72781 | 26580 ft | 350 kts | 326° |
| 2026-04-27 12:37 | 50.09146 | 10.70423 | 27191 ft | 348 kts | 312° |
| 2026-04-27 12:37 | 50.10816 | 10.67688 | 27793 ft | 350 kts | 310° |
| 2026-04-27 12:38 | 50.12474 | 10.64882 | 28356 ft | 354 kts | 310° |
| 2026-04-27 12:38 | 50.14162 | 10.62066 | 28925 ft | 357 kts | 311° |
| 2026-04-27 12:38 | 50.15880 | 10.59239 | 29508 ft | 360 kts | 311° |
| 2026-04-27 12:38 | 50.17610 | 10.56398 | 30069 ft | 363 kts | 311° |
| 2026-04-27 12:39 | 50.19344 | 10.53513 | 30560 ft | 366 kts | 310° |
| 2026-04-27 12:39 | 50.21083 | 10.50608 | 31060 ft | 367 kts | 310° |
| 2026-04-27 12:39 | 50.22829 | 10.47697 | 31545 ft | 368 kts | 311° |
| 2026-04-27 12:39 | 50.24615 | 10.44812 | 31980 ft | 370 kts | 311° |
| 2026-04-27 12:40 | 50.26427 | 10.41931 | 32387 ft | 373 kts | 311° |
| 2026-04-27 12:40 | 50.28248 | 10.39039 | 32786 ft | 375 kts | 311° |
| 2026-04-27 12:40 | 50.30081 | 10.36117 | 33189 ft | 377 kts | 311° |
| 2026-04-27 12:40 | 50.31918 | 10.33177 | 33571 ft | 379 kts | 311° |
| 2026-04-27 12:41 | 50.33756 | 10.30226 | 33936 ft | 380 kts | 311° |
| 2026-04-27 12:41 | 50.35582 | 10.27214 | 34244 ft | 382 kts | 308° |
| 2026-04-27 12:41 | 50.37283 | 10.23976 | 34225 ft | 386 kts | 306° |
| 2026-04-27 12:42 | 50.40891 | 10.17757 | 34239 ft | 385 kts | 311° |
| 2026-04-27 12:42 | 50.42787 | 10.14781 | 34405 ft | 386 kts | 311° |
| 2026-04-27 12:42 | 50.44676 | 10.11777 | 34710 ft | 387 kts | 310° |
| 2026-04-27 12:42 | 50.46506 | 10.08686 | 35011 ft | 387 kts | 309° |
| 2026-04-27 12:43 | 50.48318 | 10.05548 | 35266 ft | 389 kts | 309° |
| 2026-04-27 12:43 | 50.50142 | 10.02391 | 35500 ft | 392 kts | 309° |
| 2026-04-27 12:43 | 50.51986 | 9.99220 | 35723 ft | 394 kts | 309° |
| 2026-04-27 12:43 | 50.53845 | 9.96036 | 35967 ft | 396 kts | 309° |
| 2026-04-27 12:44 | 50.55667 | 9.92800 | 36198 ft | 396 kts | 307° |
| 2026-04-27 12:44 | 50.57435 | 9.89452 | 36423 ft | 398 kts | 307° |
| 2026-04-27 12:44 | 50.59191 | 9.86067 | 36633 ft | 400 kts | 307° |
| 2026-04-27 12:44 | 50.60953 | 9.82672 | 36829 ft | 402 kts | 307° |
| 2026-04-27 12:45 | 50.62737 | 9.79263 | 37020 ft | 404 kts | 307° |
| 2026-04-27 12:45 | 50.64533 | 9.75849 | 37224 ft | 406 kts | 307° |
| 2026-04-27 12:45 | 50.66334 | 9.72427 | 37486 ft | 405 kts | 307° |
| 2026-04-27 12:45 | 50.68123 | 9.69007 | 37789 ft | 404 kts | 307° |
| 2026-04-27 12:46 | 50.69905 | 9.65579 | 38045 ft | 404 kts | 307° |
| 2026-04-27 12:46 | 50.71687 | 9.62144 | 38232 ft | 405 kts | 307° |
| 2026-04-27 12:46 | 50.73454 | 9.58739 | 38218 ft | 407 kts | 307° |
| 2026-04-27 12:47 | 50.77038 | 9.51885 | 38236 ft | 402 kts | 307° |
| 2026-04-27 12:47 | 50.80582 | 9.45114 | 38230 ft | 398 kts | 307° |
| 2026-04-27 12:48 | 50.84098 | 9.38369 | 38239 ft | 396 kts | 307° |
| 2026-04-27 12:48 | 50.87590 | 9.31646 | 38242 ft | 395 kts | 307° |
| 2026-04-27 12:49 | 50.91074 | 9.24922 | 38242 ft | 395 kts | 307° |
| 2026-04-27 12:49 | 50.94554 | 9.18186 | 38243 ft | 396 kts | 307° |
| 2026-04-27 12:50 | 50.98046 | 9.11409 | 38252 ft | 397 kts | 307° |
| 2026-04-27 12:50 | 51.00957 | 9.05746 | 38247 ft | 400 kts | 307° |
| 2026-04-27 12:51 | 51.04479 | 8.98878 | 38251 ft | 402 kts | 307° |
| 2026-04-27 12:51 | 51.08011 | 8.91973 | 38256 ft | 404 kts | 307° |
| 2026-04-27 12:52 | 51.11558 | 8.85023 | 38246 ft | 405 kts | 306° |
| 2026-04-27 12:52 | 51.15106 | 8.78047 | 38250 ft | 406 kts | 306° |
| 2026-04-27 12:53 | 51.19918 | 8.67038 | 38254 ft | 402 kts | 292° |
| 2026-04-27 12:53 | 51.21646 | 8.58582 | 38244 ft | 401 kts | 285° |
| 2026-04-27 12:54 | 51.23212 | 8.50055 | 38244 ft | 401 kts | 285° |
| 2026-04-27 12:54 | 51.24788 | 8.41531 | 38230 ft | 400 kts | 285° |
| 2026-04-27 12:55 | 51.26372 | 8.33012 | 38231 ft | 401 kts | 285° |
| 2026-04-27 12:55 | 51.27957 | 8.24485 | 38234 ft | 400 kts | 285° |
| 2026-04-27 12:56 | 51.29536 | 8.15954 | 38235 ft | 400 kts | 285° |
| 2026-04-27 12:56 | 51.31109 | 8.07422 | 38236 ft | 400 kts | 285° |
| 2026-04-27 12:57 | 51.32675 | 7.98886 | 38243 ft | 400 kts | 285° |
| 2026-04-27 12:57 | 51.34235 | 7.90347 | 38236 ft | 400 kts | 285° |
| 2026-04-27 12:58 | 51.35789 | 7.81797 | 38232 ft | 400 kts | 285° |
| 2026-04-27 12:58 | 51.37336 | 7.73246 | 38246 ft | 400 kts | 285° |
| 2026-04-27 12:59 | 51.38878 | 7.64677 | 38161 ft | 403 kts | 285° |
| 2026-04-27 12:59 | 51.39654 | 7.60352 | 37846 ft | 405 kts | 285° |
| 2026-04-27 12:59 | 51.40429 | 7.56025 | 37590 ft | 402 kts | 285° |
| 2026-04-27 13:00 | 51.41195 | 7.51736 | 37305 ft | 399 kts | 285° |
| 2026-04-27 13:00 | 51.41954 | 7.47476 | 37043 ft | 398 kts | 284° |
| 2026-04-27 13:00 | 51.42711 | 7.43214 | 36791 ft | 398 kts | 284° |
| 2026-04-27 13:00 | 51.43467 | 7.38952 | 36527 ft | 397 kts | 284° |
| 2026-04-27 13:01 | 51.44220 | 7.34695 | 36279 ft | 397 kts | 284° |
| 2026-04-27 13:01 | 51.44970 | 7.30445 | 36029 ft | 396 kts | 284° |
| 2026-04-27 13:01 | 51.45715 | 7.26211 | 35778 ft | 394 kts | 284° |
| 2026-04-27 13:01 | 51.46457 | 7.21985 | 35532 ft | 393 kts | 284° |
| 2026-04-27 13:02 | 51.47194 | 7.17783 | 35284 ft | 390 kts | 284° |
| 2026-04-27 13:02 | 51.47923 | 7.13613 | 35043 ft | 387 kts | 284° |
| 2026-04-27 13:02 | 51.48646 | 7.09471 | 34794 ft | 383 kts | 283° |
| 2026-04-27 13:02 | 51.49359 | 7.05374 | 34546 ft | 380 kts | 283° |
| 2026-04-27 13:03 | 51.50064 | 7.01314 | 34324 ft | 376 kts | 283° |
| 2026-04-27 13:03 | 51.50761 | 6.97288 | 34053 ft | 373 kts | 283° |
| 2026-04-27 13:03 | 51.51451 | 6.93296 | 33761 ft | 369 kts | 283° |
| 2026-04-27 13:03 | 51.52133 | 6.89337 | 33493 ft | 366 kts | 283° |
| 2026-04-27 13:04 | 51.52807 | 6.85417 | 33218 ft | 364 kts | 283° |
| 2026-04-27 13:04 | 51.53477 | 6.81510 | 32960 ft | 361 kts | 283° |
| 2026-04-27 13:04 | 51.54142 | 6.77626 | 32690 ft | 360 kts | 283° |
| 2026-04-27 13:04 | 51.54801 | 6.73768 | 32428 ft | 358 kts | 283° |
| 2026-04-27 13:05 | 51.55458 | 6.69917 | 32175 ft | 357 kts | 283° |
| 2026-04-27 13:05 | 51.56111 | 6.66074 | 31914 ft | 355 kts | 283° |
| 2026-04-27 13:05 | 51.56760 | 6.62253 | 31666 ft | 354 kts | 283° |
| 2026-04-27 13:05 | 51.57407 | 6.58429 | 31416 ft | 354 kts | 283° |
| 2026-04-27 13:06 | 51.58050 | 6.54622 | 31178 ft | 353 kts | 283° |
| 2026-04-27 13:06 | 51.58691 | 6.50820 | 30925 ft | 352 kts | 283° |
| 2026-04-27 13:06 | 51.59330 | 6.47025 | 30683 ft | 351 kts | 283° |
| 2026-04-27 13:06 | 51.59965 | 6.43239 | 30441 ft | 350 kts | 283° |
| 2026-04-27 13:07 | 51.60598 | 6.39465 | 30172 ft | 349 kts | 283° |
| 2026-04-27 13:07 | 51.61227 | 6.35700 | 29888 ft | 348 kts | 283° |
| 2026-04-27 13:07 | 51.61853 | 6.31947 | 29609 ft | 347 kts | 283° |
| 2026-04-27 13:07 | 51.62475 | 6.28208 | 29324 ft | 345 kts | 283° |
| 2026-04-27 13:08 | 51.63093 | 6.24485 | 29052 ft | 344 kts | 283° |
| 2026-04-27 13:08 | 51.63709 | 6.20773 | 28787 ft | 343 kts | 283° |
| 2026-04-27 13:08 | 51.64321 | 6.17071 | 28501 ft | 341 kts | 283° |
| 2026-04-27 13:08 | 51.64927 | 6.13394 | 28233 ft | 340 kts | 283° |
| 2026-04-27 13:09 | 51.65532 | 6.09722 | 27964 ft | 338 kts | 283° |
| 2026-04-27 13:09 | 51.66124 | 6.06119 | 27704 ft | 337 kts | 283° |
| 2026-04-27 13:09 | 51.66728 | 6.02433 | 27440 ft | 336 kts | 283° |
| 2026-04-27 13:09 | 51.67314 | 5.98852 | 27076 ft | 334 kts | 283° |
| 2026-04-27 13:10 | 51.67908 | 5.95214 | 26664 ft | 330 kts | 283° |
| 2026-04-27 13:10 | 51.68480 | 5.91701 | 26240 ft | 327 kts | 283° |
| 2026-04-27 13:10 | 51.69054 | 5.88169 | 25813 ft | 325 kts | 283° |
| 2026-04-27 13:10 | 51.69631 | 5.84612 | 25394 ft | 322 kts | 283° |
| 2026-04-27 13:11 | 51.70187 | 5.81177 | 24980 ft | 321 kts | 283° |
| 2026-04-27 13:11 | 51.70747 | 5.77707 | 24570 ft | 319 kts | 283° |
| 2026-04-27 13:11 | 51.71303 | 5.74255 | 24153 ft | 318 kts | 283° |
| 2026-04-27 13:11 | 51.71856 | 5.70819 | 23716 ft | 316 kts | 283° |
| 2026-04-27 13:12 | 51.72406 | 5.67389 | 23233 ft | 315 kts | 283° |
| 2026-04-27 13:12 | 51.72952 | 5.63983 | 22801 ft | 313 kts | 283° |
| 2026-04-27 13:12 | 51.73493 | 5.60601 | 22372 ft | 310 kts | 283° |
| 2026-04-27 13:12 | 51.74026 | 5.57257 | 21945 ft | 307 kts | 283° |
| 2026-04-27 13:13 | 51.74526 | 5.54117 | 21562 ft | 305 kts | 283° |
| 2026-04-27 13:13 | 51.75052 | 5.50812 | 21145 ft | 303 kts | 283° |
| 2026-04-27 13:13 | 51.75572 | 5.47528 | 20736 ft | 301 kts | 283° |
| 2026-04-27 13:13 | 51.76089 | 5.44266 | 20327 ft | 300 kts | 283° |
| 2026-04-27 13:14 | 51.76608 | 5.40978 | 19844 ft | 305 kts | 283° |
| 2026-04-27 13:14 | 51.77134 | 5.37633 | 19283 ft | 309 kts | 283° |
| 2026-04-27 13:14 | 51.77666 | 5.34254 | 18744 ft | 311 kts | 283° |
| 2026-04-27 13:14 | 51.78199 | 5.30858 | 18152 ft | 313 kts | 283° |
| 2026-04-27 13:15 | 51.78735 | 5.27437 | 17533 ft | 315 kts | 283° |
| 2026-04-27 13:15 | 51.79272 | 5.24002 | 16937 ft | 316 kts | 283° |
| 2026-04-27 13:15 | 51.79798 | 5.20550 | 16340 ft | 316 kts | 280° |
| 2026-04-27 13:15 | 51.80048 | 5.17023 | 15757 ft | 317 kts | 274° |
| 2026-04-27 13:16 | 51.80160 | 5.13467 | 15190 ft | 317 kts | 272° |
| 2026-04-27 13:16 | 51.80241 | 5.09902 | 14635 ft | 317 kts | 272° |
| 2026-04-27 13:16 | 51.80335 | 5.06336 | 14087 ft | 318 kts | 272° |
| 2026-04-27 13:16 | 51.80433 | 5.02825 | 13482 ft | 318 kts | 272° |
| 2026-04-27 13:17 | 51.80533 | 4.99248 | 12881 ft | 318 kts | 272° |
| 2026-04-27 13:17 | 51.80633 | 4.95678 | 12285 ft | 319 kts | 272° |
| 2026-04-27 13:17 | 51.80733 | 4.92096 | 11702 ft | 319 kts | 272° |
| 2026-04-27 13:17 | 51.80831 | 4.88515 | 11127 ft | 319 kts | 272° |
| 2026-04-27 13:18 | 51.80928 | 4.84935 | 10575 ft | 319 kts | 272° |
| 2026-04-27 13:18 | 51.81019 | 4.81357 | 9999 ft | 319 kts | 272° |
| 2026-04-27 13:18 | 51.81111 | 4.77780 | 9389 ft | 318 kts | 272° |
| 2026-04-27 13:18 | 51.81202 | 4.74202 | 8791 ft | 318 kts | 272° |
| 2026-04-27 13:19 | 51.81287 | 4.70688 | 8208 ft | 317 kts | 272° |
| 2026-04-27 13:19 | 51.81369 | 4.67136 | 7636 ft | 316 kts | 272° |
| 2026-04-27 13:19 | 51.81447 | 4.63584 | 7065 ft | 316 kts | 272° |
| 2026-04-27 13:19 | 51.81521 | 4.60089 | 6485 ft | 307 kts | 272° |
| 2026-04-27 13:20 | 51.81588 | 4.56688 | 5871 ft | 299 kts | 272° |
| 2026-04-27 13:20 | 51.81642 | 4.53366 | 5304 ft | 292 kts | 272° |
| 2026-04-27 13:20 | 51.81688 | 4.50103 | 4719 ft | 288 kts | 272° |
| 2026-04-27 13:20 | 51.81730 | 4.46890 | 4131 ft | 284 kts | 272° |
| 2026-04-27 13:21 | 51.81768 | 4.43711 | 3559 ft | 282 kts | 272° |
| 2026-04-27 13:21 | 51.81798 | 4.40553 | 2986 ft | 281 kts | 272° |
| 2026-04-27 13:21 | 51.81835 | 4.37404 | 2377 ft | 279 kts | 272° |
| 2026-04-27 13:21 | 51.81870 | 4.34330 | 2103 ft | 265 kts | 272° |
| 2026-04-27 13:22 | 51.81901 | 4.31466 | 1999 ft | 246 kts | 272° |
| 2026-04-27 13:22 | 51.81928 | 4.28801 | 1987 ft | 229 kts | 272° |
| 2026-04-27 13:22 | 51.81946 | 4.26323 | 1990 ft | 213 kts | 272° |
| 2026-04-27 13:22 | 51.82055 | 4.23978 | 1985 ft | 208 kts | 288° |
| 2026-04-27 13:23 | 51.82663 | 4.21918 | 1991 ft | 203 kts | 303° |
| 2026-04-27 13:23 | 51.83653 | 4.20403 | 2021 ft | 196 kts | 342° |
| 2026-04-27 13:23 | 51.84992 | 4.20442 | 2001 ft | 197 kts | 27° |
| 2026-04-27 13:23 | 51.86097 | 4.21753 | 1999 ft | 198 kts | 39° |
| 2026-04-27 13:24 | 51.87139 | 4.23236 | 1994 ft | 202 kts | 46° |
| 2026-04-27 13:24 | 51.88025 | 4.24934 | 1994 ft | 192 kts | 52° |
| 2026-04-27 13:24 | 51.88778 | 4.26652 | 2000 ft | 181 kts | 56° |
| 2026-04-27 13:24 | 51.89448 | 4.28321 | 2006 ft | 174 kts | 56° |
| 2026-04-27 13:25 | 51.90118 | 4.30017 | 1887 ft | 180 kts | 56° |
| 2026-04-27 13:25 | 51.90788 | 4.31706 | 1634 ft | 179 kts | 56° |
| 2026-04-27 13:25 | 51.91446 | 4.33359 | 1414 ft | 168 kts | 56° |
| 2026-04-27 13:25 | 51.92045 | 4.34871 | 1190 ft | 156 kts | 56° |
| 2026-04-27 13:26 | 51.92614 | 4.36305 | 995 ft | 146 kts | 55° |
| 2026-04-27 13:26 | 51.93134 | 4.37611 | 943 ft | 133 kts | 55° |
| 2026-04-27 13:26 | 51.93666 | 4.38919 | 601 ft | 144 kts | 54° |
| 2026-04-27 13:26 | 51.94174 | 4.40199 | 492 ft | 127 kts | 55° |
| 2026-04-27 13:27 | 51.94659 | 4.41459 | 237 ft | 131 kts | 56° |
| 2026-04-27 13:27 | 51.95131 | 4.42617 | 43 ft | 117 kts | 54° |
| 2026-04-27 13:27 | 51.95523 | 4.43591 | -6 ft | 76 kts | 58° |
| 2026-04-27 13:27 | 51.95694 | 4.44038 | -6 ft | 27 kts | 58° |
| 2026-04-27 13:28 | 51.95795 | 4.44291 | -6 ft | 27 kts | 56° |
| 2026-04-27 13:28 | 51.95892 | 4.44536 | -6 ft | 19 kts | 57° |
| 2026-04-27 13:28 | 51.95882 | 4.44702 | -6 ft | 17 kts | 143° |
| 2026-04-27 13:28 | 51.95788 | 4.44748 | -6 ft | 14 kts | 214° |
| 2026-04-27 13:29 | 51.95722 | 4.44613 | -6 ft | 18 kts | 236° |
| 2026-04-27 13:29 | 51.95640 | 4.44394 | -6 ft | 27 kts | 237° |
| 2026-04-27 13:29 | 51.95534 | 4.44134 | -6 ft | 28 kts | 237° |
| 2026-04-27 13:29 | 51.95433 | 4.43882 | -6 ft | 26 kts | 237° |
| 2026-04-27 13:30 | 51.95340 | 4.43647 | -6 ft | 24 kts | 237° |
| 2026-04-27 13:30 | 51.95261 | 4.43508 | -6 ft | 14 kts | 186° |
| 2026-04-27 13:30 | 51.95173 | 4.43580 | -7 ft | 14 kts | 149° |
| 2026-04-27 13:30 | 51.95138 | 4.43619 | -7 ft | 0 kts | 143° |
| 2026-04-27 13:31 | 51.95111 | 4.43625 | -7 ft | 9 kts | 193° |
| 2026-04-27 13:31 | 51.95089 | 4.43589 | -7 ft | 0 kts | 234° |
| 2026-04-27 13:31 | 51.95079 | 4.43561 | -7 ft | 7 kts | 247° |
| 2026-04-27 13:31 | 51.95102 | 4.43495 | -7 ft | 7 kts | 325° |
| 2026-04-27 13:32 | 51.95114 | 4.43482 | -7 ft | 0 kts | 328° |